createdAt,value
2019-04-05T00:08:02.995Z,13.03
2019-04-05T00:10:34.938Z,12.00
2019-04-05T00:15:50.319Z,13.10
2019-04-05T00:18:22.269Z,12.80
2019-04-05T00:20:54.239Z,12.77
2019-04-05T00:23:26.194Z,13.97
2019-04-05T00:25:58.140Z,11.73
2019-04-05T00:28:30.064Z,12.67
2019-04-05T00:31:02.054Z,13.40
2019-04-05T00:33:53.573Z,13.20
2019-04-05T00:36:25.492Z,14.13
2019-04-05T00:38:57.419Z,13.87
2019-04-05T00:41:29.364Z,13.17
2019-04-05T00:44:01.294Z,13.33
2019-04-05T00:46:33.236Z,13.97
2019-04-05T00:49:05.163Z,13.03
2019-04-05T00:51:37.180Z,14.73
2019-04-05T00:54:09.107Z,13.27
2019-04-05T00:56:41.024Z,13.43
2019-04-05T00:59:19.884Z,14.10
2019-04-05T01:02:32.638Z,12.83
2019-04-05T01:05:04.639Z,13.97
2019-04-05T01:07:36.571Z,13.50
2019-04-05T01:10:49.330Z,13.63
2019-04-05T01:13:21.355Z,14.20
2019-04-05T01:15:53.306Z,13.77
2019-04-05T01:18:25.211Z,14.93
2019-04-05T01:21:38.018Z,13.53
2019-04-05T01:24:50.768Z,15.13
2019-04-05T01:28:03.702Z,15.27
2019-04-05T01:30:35.725Z,15.70
2019-04-05T01:33:07.641Z,16.03
2019-04-05T01:35:39.601Z,15.27
2019-04-05T01:38:11.654Z,16.73
2019-04-05T01:41:24.435Z,15.67
2019-04-05T01:43:56.338Z,15.77
2019-04-05T01:46:28.369Z,16.70
2019-04-05T01:49:00.268Z,15.77
2019-04-05T01:52:13.049Z,15.43
2019-04-05T01:54:45.000Z,16.03
2019-04-05T01:57:17.029Z,16.80
2019-04-05T01:59:49.072Z,16.93
2019-04-05T02:02:21.092Z,17.43
2019-04-05T02:04:53.131Z,17.40
2019-04-05T02:07:25.097Z,17.67
2019-04-05T02:10:37.855Z,17.20
2019-04-05T02:13:09.845Z,17.93
2019-04-05T02:15:41.789Z,18.33
2019-04-05T02:18:13.880Z,17.80
2019-04-05T02:20:45.855Z,18.27
2019-04-05T02:23:17.798Z,18.30
2019-04-05T02:25:49.754Z,18.03
2019-04-05T02:28:21.724Z,18.70
2019-04-05T02:30:53.663Z,19.30
2019-04-05T02:33:25.634Z,19.93
2019-04-05T02:35:57.576Z,17.77
2019-04-05T02:38:29.536Z,18.07
2019-04-05T02:41:02.128Z,18.20
2019-04-05T02:43:34.971Z,18.90
2019-04-05T02:46:22.667Z,17.40
2019-04-05T02:48:41.529Z,20.13
2019-04-05T02:51:15.398Z,20.50
2019-04-05T02:53:47.977Z,18.73
2019-04-05T02:56:20.272Z,22.60
2019-04-05T02:58:53.126Z,21.70
2019-04-05T03:01:25.485Z,19.30
2019-04-05T03:03:57.449Z,21.50
2019-04-05T03:06:29.487Z,20.13
2019-04-05T03:09:03.732Z,20.97
2019-04-05T03:11:37.432Z,20.93
2019-04-05T03:14:09.981Z,20.07
2019-04-05T03:16:44.389Z,20.40
2019-04-05T03:19:22.440Z,21.87
2019-04-05T03:22:00.620Z,21.47
2019-04-05T03:24:34.975Z,21.43
2019-04-05T03:27:18.023Z,19.93
2019-04-05T03:29:49.976Z,20.70
2019-04-05T03:32:22.210Z,20.40
2019-04-05T03:34:55.295Z,18.57
2019-04-05T03:37:27.322Z,20.97
2019-04-05T03:39:59.783Z,21.40
2019-04-05T03:42:31.714Z,21.60
2019-04-05T03:45:04.003Z,20.77
2019-04-05T03:47:35.941Z,20.73
2019-04-05T03:50:08.097Z,21.87
2019-04-05T03:52:40.102Z,21.37
2019-04-05T03:55:12.103Z,18.70
2019-04-05T03:57:44.053Z,17.80
2019-04-05T04:00:16.158Z,18.97
2019-04-05T04:02:48.106Z,16.40
2019-04-05T04:05:20.083Z,16.83
2019-04-05T04:07:52.040Z,17.77
2019-04-05T04:10:24.910Z,18.23
2019-04-05T04:12:56.870Z,17.10
2019-04-05T04:15:28.855Z,17.47
2019-04-05T04:18:00.845Z,17.13
2019-04-05T04:20:43.850Z,16.83
2019-04-05T04:23:16.174Z,17.93
2019-04-05T04:25:48.754Z,17.93
2019-04-05T04:28:20.877Z,17.13
2019-04-05T04:30:53.433Z,18.43
2019-04-05T04:33:25.364Z,17.10
2019-04-05T04:35:57.500Z,17.30
2019-04-05T04:38:29.546Z,18.60
2019-04-05T04:41:01.732Z,17.67
2019-04-05T04:43:34.434Z,18.30
2019-04-05T04:46:07.002Z,16.70
2019-04-05T04:48:39.017Z,18.20
2019-04-05T04:51:11.233Z,18.10
2019-04-05T04:53:43.331Z,18.07
2019-04-05T04:56:15.592Z,17.93
2019-04-05T04:58:47.598Z,17.73
2019-04-05T05:01:20.065Z,17.77
2019-04-05T05:03:52.039Z,18.67
2019-04-05T05:06:23.983Z,16.40
2019-04-05T05:08:56.159Z,18.00
2019-04-05T05:11:28.372Z,18.07
2019-04-05T05:14:00.452Z,17.50
2019-04-05T05:16:32.388Z,18.67
2019-04-05T05:19:04.391Z,18.37
2019-04-05T05:21:36.313Z,18.97
2019-04-05T05:24:08.304Z,18.10
2019-04-05T05:26:40.448Z,19.83
2019-04-05T05:29:12.715Z,17.67
2019-04-05T05:31:44.666Z,19.07
2019-04-05T05:34:16.636Z,17.63
2019-04-05T05:36:48.712Z,16.53
2019-04-05T05:39:21.095Z,17.67
2019-04-05T05:41:53.033Z,17.53
2019-04-05T05:44:24.993Z,17.77
2019-04-05T05:46:56.948Z,18.47
2019-04-05T05:49:28.929Z,17.10
2019-04-05T05:52:00.904Z,17.27
2019-04-05T05:54:32.884Z,17.60
2019-04-05T05:57:04.984Z,16.93
2019-04-05T05:59:36.938Z,17.37
2019-04-05T06:02:08.902Z,17.33
2019-04-05T06:04:40.869Z,17.73
2019-04-05T06:07:12.820Z,17.10
2019-04-05T06:09:47.586Z,17.03
2019-04-05T06:12:18.723Z,17.73
2019-04-05T06:14:50.697Z,18.70
2019-04-05T06:17:22.651Z,17.40
2019-04-05T06:19:54.697Z,17.83
2019-04-05T06:22:26.656Z,17.63
2019-04-05T06:24:58.626Z,17.17
2019-04-05T06:27:30.625Z,16.53
2019-04-05T06:30:03.460Z,17.00
2019-04-05T06:32:35.464Z,16.70
2019-04-05T06:35:07.501Z,16.17
2019-04-05T06:37:39.447Z,17.57
2019-04-05T06:40:11.735Z,17.07
2019-04-05T06:42:43.684Z,17.23
2019-04-05T06:45:15.683Z,18.43
2019-04-05T06:47:47.639Z,18.13
2019-04-05T06:50:19.636Z,20.53
2019-04-05T06:52:51.604Z,19.47
2019-04-05T06:55:23.588Z,19.10
2019-04-05T06:57:55.618Z,17.60
2019-04-05T07:00:28.568Z,17.93
2019-04-05T07:03:01.134Z,18.40
2019-04-05T07:05:33.153Z,18.50
2019-04-05T07:08:05.140Z,20.47
2019-04-05T07:10:37.318Z,20.13
2019-04-05T07:13:09.440Z,19.93
2019-04-05T07:15:41.398Z,20.03
2019-04-05T07:18:13.442Z,19.77
2019-04-05T07:20:45.435Z,22.27
2019-04-05T07:23:17.445Z,19.60
2019-04-05T07:25:49.397Z,20.93
2019-04-05T07:28:21.390Z,19.60
2019-04-05T07:30:53.360Z,19.03
2019-04-05T07:33:25.353Z,20.07
2019-04-05T07:35:57.321Z,19.73
2019-04-05T07:38:29.305Z,20.00
2019-04-05T07:41:01.325Z,19.77
2019-04-05T07:43:33.328Z,21.13
2019-04-05T07:46:05.271Z,20.07
2019-04-05T07:48:44.638Z,19.93
2019-04-05T07:51:11.124Z,20.23
2019-04-05T07:53:43.084Z,20.33
2019-04-05T07:56:15.039Z,19.03
2019-04-05T07:58:47.009Z,21.07
2019-04-05T08:01:19.047Z,19.47
2019-04-05T08:03:51.056Z,20.53
2019-04-05T08:06:23.022Z,21.00
2019-04-05T08:09:07.941Z,20.43
2019-04-05T08:11:41.339Z,21.77
2019-04-05T08:14:14.453Z,22.57
2019-04-05T08:16:46.443Z,20.60
2019-04-05T08:19:18.475Z,22.00
2019-04-05T08:21:50.421Z,20.60
2019-04-05T08:24:22.393Z,20.97
2019-04-05T08:26:54.368Z,19.73
2019-04-05T08:29:26.360Z,22.67
2019-04-05T08:31:58.383Z,21.50
2019-04-05T08:34:30.384Z,22.13
2019-04-05T08:37:02.360Z,20.57
2019-04-05T08:39:34.372Z,22.07
2019-04-05T08:42:06.375Z,20.63
2019-04-05T08:44:38.395Z,22.23
2019-04-05T08:47:10.392Z,21.90
2019-04-05T08:49:42.422Z,22.97
2019-04-05T08:52:14.441Z,23.10
2019-04-05T08:54:46.451Z,22.50
2019-04-05T08:57:18.442Z,22.77
2019-04-05T08:59:53.278Z,21.37
2019-04-05T09:02:24.561Z,21.77
2019-04-05T09:04:56.558Z,22.30
2019-04-05T09:07:28.663Z,21.80
2019-04-05T09:10:00.816Z,22.33
2019-04-05T09:12:32.827Z,22.93
2019-04-05T09:15:05.220Z,21.73
2019-04-05T09:17:37.235Z,21.70
2019-04-05T09:20:09.627Z,21.90
2019-04-05T09:22:41.620Z,21.13
2019-04-05T09:25:13.639Z,18.50
2019-04-05T09:27:45.630Z,18.83
2019-04-05T09:30:17.956Z,17.47
2019-04-05T09:32:50.066Z,18.40
2019-04-05T09:35:22.123Z,17.83
2019-04-05T09:37:54.251Z,16.57
2019-04-05T09:40:26.351Z,16.77
2019-04-05T09:42:58.432Z,16.03
2019-04-05T09:45:30.459Z,16.10
2019-04-05T09:48:02.486Z,17.70
2019-04-05T09:50:34.494Z,17.90
2019-04-05T09:53:06.511Z,15.73
2019-04-05T09:55:38.580Z,17.60
2019-04-05T09:58:10.586Z,16.77
2019-04-05T10:00:42.745Z,16.83
2019-04-05T10:03:14.792Z,16.87
2019-04-05T10:05:48.112Z,16.17
2019-04-05T10:08:20.151Z,16.87
2019-04-05T10:10:52.291Z,16.30
2019-04-05T10:13:24.289Z,15.80
2019-04-05T10:15:56.265Z,16.33
2019-04-05T10:18:28.287Z,15.83
2019-04-05T10:21:00.250Z,15.13
2019-04-05T10:23:32.243Z,14.23
2019-04-05T10:26:04.798Z,14.63
2019-04-05T10:28:36.830Z,14.80
2019-04-05T10:31:08.809Z,16.07
2019-04-05T10:33:40.802Z,16.10
2019-04-05T10:36:12.789Z,15.70
2019-04-05T10:38:44.802Z,15.97
2019-04-05T10:41:16.810Z,15.53
2019-04-05T10:43:48.798Z,15.87
2019-04-05T10:46:20.795Z,14.53
2019-04-05T10:48:52.843Z,14.60
2019-04-05T10:51:25.157Z,16.80
2019-04-05T10:53:57.203Z,16.50
2019-04-05T10:56:36.514Z,15.47
2019-04-05T10:59:10.189Z,14.53
2019-04-05T11:01:42.339Z,15.20
2019-04-05T11:04:17.427Z,15.27
2019-04-05T11:06:51.243Z,16.17
2019-04-05T11:09:23.318Z,15.00
2019-04-05T11:11:55.339Z,14.43
2019-04-05T11:14:27.336Z,15.30
2019-04-05T11:16:59.376Z,14.60
2019-04-05T11:19:32.678Z,14.53
2019-04-05T11:22:05.667Z,14.23
2019-04-05T11:24:37.749Z,15.10
2019-04-05T11:27:09.783Z,15.20
2019-04-05T11:29:41.832Z,13.77
2019-04-05T11:32:15.009Z,15.57
2019-04-05T11:34:47.046Z,13.23
2019-04-05T11:37:19.769Z,14.30
2019-04-05T11:39:52.221Z,14.10
2019-04-05T11:42:24.882Z,14.70
2019-04-05T11:44:57.893Z,14.47
2019-04-05T11:47:30.058Z,15.77
2019-04-05T11:50:02.159Z,14.63
2019-04-05T11:52:34.301Z,15.63
2019-04-05T11:55:07.082Z,15.50
2019-04-05T11:57:41.074Z,15.10
2019-04-05T12:00:18.433Z,15.83
2019-04-05T12:02:55.461Z,15.43
2019-04-05T12:05:28.013Z,14.87
2019-04-05T12:08:02.250Z,14.50
2019-04-05T12:10:35.503Z,14.47
2019-04-05T12:13:07.597Z,15.00
2019-04-05T12:15:39.752Z,16.20
2019-04-05T12:18:11.911Z,15.63
2019-04-05T12:20:52.005Z,15.13
2019-04-05T12:23:18.019Z,14.57
2019-04-05T12:25:50.240Z,15.40
2019-04-05T12:28:22.280Z,14.77
2019-04-05T12:30:54.670Z,19.80
2019-04-05T12:33:26.615Z,15.20
2019-04-05T12:35:58.659Z,16.47
2019-04-05T12:38:32.466Z,15.23
2019-04-05T12:41:04.930Z,17.00
2019-04-05T12:43:37.041Z,16.67
2019-04-05T12:46:09.040Z,24.00
2019-04-05T12:48:45.425Z,17.47
2019-04-05T12:51:16.467Z,19.23
2019-04-05T12:53:48.469Z,15.07
2019-04-05T12:56:20.451Z,14.87
2019-04-05T12:58:55.922Z,14.20
2019-04-05T13:01:28.542Z,14.53
2019-04-05T13:04:00.594Z,14.03
2019-04-05T13:06:32.628Z,14.10
2019-04-05T13:09:08.245Z,14.60
2019-04-05T13:11:40.731Z,13.90
2019-04-05T13:14:12.844Z,13.60
2019-04-05T13:16:49.419Z,12.27
2019-04-05T13:19:20.653Z,13.37
2019-04-05T13:21:52.769Z,12.73
2019-04-05T13:24:24.716Z,12.27
2019-04-05T13:26:57.980Z,12.17
2019-04-05T13:29:30.005Z,13.03
2019-04-05T13:32:02.084Z,12.03
2019-04-05T13:34:34.093Z,12.70
2019-04-05T13:37:06.134Z,12.57
2019-04-05T13:39:38.286Z,12.37
2019-04-05T13:42:10.429Z,13.07
2019-04-05T13:44:42.581Z,13.77
2019-04-05T13:47:14.848Z,12.73
2019-04-05T13:49:49.129Z,12.70
2019-04-05T13:52:21.317Z,13.83
2019-04-05T13:54:54.585Z,13.03
2019-04-05T13:57:28.667Z,14.00
2019-04-05T14:00:00.878Z,13.37
2019-04-05T14:02:33.086Z,12.07
2019-04-05T14:05:05.428Z,11.90
2019-04-05T14:07:38.503Z,11.97
2019-04-05T14:10:12.503Z,12.03
2019-04-05T14:12:44.589Z,11.50
2019-04-05T14:15:16.611Z,12.27
2019-04-05T14:17:49.414Z,12.43
2019-04-05T14:20:24.337Z,12.00
2019-04-05T14:22:55.840Z,11.73
2019-04-05T14:25:30.166Z,12.70
2019-04-05T14:28:02.473Z,11.57
2019-04-05T14:30:35.771Z,12.77
2019-04-05T14:33:07.764Z,11.83
2019-04-05T14:35:39.844Z,12.40
2019-04-05T14:38:11.993Z,11.60
2019-04-05T14:40:44.004Z,12.87
2019-04-05T14:43:16.136Z,12.30
2019-04-05T14:45:48.179Z,11.63
2019-04-05T14:48:20.171Z,13.20
2019-04-05T14:50:52.206Z,12.57
2019-04-05T14:53:24.228Z,12.63
2019-04-05T14:55:59.067Z,12.47
2019-04-05T14:58:30.122Z,12.13
2019-04-05T15:01:02.370Z,11.73
2019-04-05T15:03:34.984Z,10.63
2019-04-05T15:06:07.169Z,11.47
2019-04-05T15:08:39.327Z,11.10
2019-04-05T15:11:11.410Z,11.00
2019-04-05T15:13:43.420Z,11.70
2019-04-05T15:16:15.470Z,10.77
2019-04-05T15:18:47.558Z,11.23
2019-04-05T15:21:19.631Z,10.63
2019-04-05T15:23:51.680Z,9.40
2019-04-05T15:26:23.760Z,10.87
2019-04-05T15:28:55.864Z,10.13
2019-04-05T15:31:27.939Z,11.10
2019-04-05T15:34:00.047Z,10.83
2019-04-05T15:36:32.305Z,10.90
2019-04-05T15:39:07.616Z,11.33
2019-04-05T15:41:39.715Z,11.13
2019-04-05T15:44:11.743Z,9.70
2019-04-05T15:46:43.829Z,10.47
2019-04-05T15:49:15.885Z,11.07
2019-04-05T15:51:47.919Z,11.20
2019-04-05T15:54:20.011Z,11.20
2019-04-05T15:56:52.139Z,11.07
2019-04-05T15:59:24.660Z,9.93
2019-04-05T16:01:56.886Z,11.40
2019-04-05T16:04:28.960Z,12.33
2019-04-05T16:07:00.955Z,10.30
2019-04-05T16:09:33.004Z,11.13
2019-04-05T16:12:05.175Z,12.17
2019-04-05T16:14:37.267Z,10.00
2019-04-05T16:17:12.398Z,10.10
2019-04-05T16:19:44.166Z,11.17
2019-04-05T16:22:16.130Z,10.60
2019-04-05T16:24:48.236Z,10.80
2019-04-05T16:27:20.249Z,11.33
2019-04-05T16:29:52.270Z,10.17
2019-04-05T16:32:24.269Z,11.37
2019-04-05T16:34:56.261Z,11.43
2019-04-05T16:37:28.331Z,11.90
2019-04-05T16:40:00.323Z,12.10
2019-04-05T16:42:32.419Z,11.87
2019-04-05T16:45:05.229Z,13.73
2019-04-05T16:47:37.223Z,11.70
2019-04-05T16:50:09.784Z,12.13
2019-04-05T16:52:45.115Z,12.77
2019-04-05T16:55:15.863Z,11.53
2019-04-05T16:57:48.093Z,11.63
2019-04-05T17:00:20.593Z,10.53
2019-04-05T17:02:52.647Z,11.13
2019-04-05T17:05:24.739Z,11.40
2019-04-05T17:07:56.797Z,17.57
2019-04-05T17:10:29.079Z,15.57
2019-04-05T17:13:01.281Z,12.93
2019-04-05T17:15:33.413Z,12.67
2019-04-05T17:18:05.478Z,11.67
2019-04-05T17:20:37.524Z,12.73
2019-04-05T17:23:09.636Z,11.90
2019-04-05T17:25:41.712Z,12.40
2019-04-05T17:28:13.711Z,13.57
2019-04-05T17:30:45.998Z,12.10
2019-04-05T17:33:18.124Z,11.73
2019-04-05T17:35:50.241Z,12.80
2019-04-05T17:38:22.243Z,13.33
2019-04-05T17:40:54.263Z,13.23
2019-04-05T17:43:26.317Z,11.63
2019-04-05T17:45:58.386Z,12.27
2019-04-05T17:48:30.447Z,11.67
2019-04-05T17:51:02.525Z,12.10
2019-04-05T17:53:34.674Z,12.70
2019-04-05T17:56:06.789Z,11.37
2019-04-05T17:58:38.929Z,12.23
2019-04-05T18:01:10.994Z,13.57
2019-04-05T18:03:43.070Z,13.23
2019-04-05T18:06:15.446Z,11.50
2019-04-05T18:08:47.493Z,13.57
2019-04-05T18:11:19.594Z,13.20
2019-04-05T18:13:51.615Z,13.60
2019-04-05T18:16:23.672Z,12.77
2019-04-05T18:18:55.741Z,13.70
2019-04-05T18:21:27.918Z,12.30
2019-04-05T18:24:00.070Z,11.47
2019-04-05T18:26:32.210Z,10.80
2019-04-05T18:29:04.268Z,10.40
2019-04-05T18:31:36.410Z,11.10
2019-04-05T18:34:08.479Z,11.53
2019-04-05T18:36:40.543Z,11.93
2019-04-05T18:39:12.700Z,10.67
2019-04-05T18:41:44.754Z,12.73
2019-04-05T18:44:16.817Z,13.87
2019-04-05T18:46:48.898Z,14.87
2019-04-05T18:49:21.105Z,12.50
2019-04-05T18:51:53.187Z,14.87
2019-04-05T18:54:25.344Z,13.90
2019-04-05T18:56:57.472Z,15.40
2019-04-05T18:59:29.603Z,14.17
2019-04-05T19:02:01.625Z,11.93
2019-04-05T19:04:33.744Z,11.50
2019-04-05T19:07:05.742Z,11.20
2019-04-05T19:09:37.849Z,12.20
2019-04-05T19:12:09.830Z,12.70
2019-04-05T19:14:41.986Z,11.07
2019-04-05T19:17:23.927Z,12.87
2019-04-05T19:19:48.023Z,12.07
2019-04-05T19:22:20.111Z,13.00
2019-04-05T19:24:52.215Z,13.40
2019-04-05T19:27:24.240Z,13.53
2019-04-05T19:29:56.278Z,12.87
2019-04-05T19:50:26.202Z,13.63
2019-04-05T19:52:58.206Z,14.30
2019-04-05T19:55:30.310Z,13.10
2019-04-05T19:58:02.391Z,12.60
2019-04-05T20:00:34.489Z,11.60
2019-04-05T20:03:06.600Z,14.17
2019-04-05T20:05:38.688Z,13.83
2019-04-05T20:08:10.674Z,13.17
2019-04-05T20:10:42.703Z,11.83
2019-04-05T20:13:14.859Z,12.30
2019-04-05T20:15:46.920Z,11.63
2019-04-05T20:18:18.941Z,11.63
2019-04-05T20:20:51.112Z,11.60
2019-04-05T20:23:23.243Z,11.23
2019-04-05T20:25:55.244Z,11.37
2019-04-05T20:28:27.299Z,11.83
2019-04-05T20:30:59.441Z,11.80
2019-04-05T20:33:31.555Z,12.77
2019-04-05T20:36:03.669Z,11.73
2019-04-05T20:38:35.728Z,11.87
2019-04-05T20:41:07.790Z,12.13
2019-04-05T20:43:39.974Z,12.73
2019-04-05T20:46:12.116Z,10.93
2019-04-05T20:48:44.177Z,11.27
2019-04-05T20:51:16.168Z,13.00
2019-04-05T20:53:48.225Z,12.47
2019-04-05T20:56:20.259Z,11.80
2019-04-05T20:58:52.405Z,11.47
2019-04-05T21:01:24.594Z,12.67
2019-04-05T21:03:56.616Z,12.80
2019-04-05T21:06:28.651Z,13.03
2019-04-05T21:09:00.742Z,13.20
2019-04-05T21:11:32.736Z,13.47
2019-04-05T21:14:04.826Z,13.13
2019-04-05T21:16:36.849Z,12.70
2019-04-05T21:19:08.933Z,11.93
2019-04-05T21:21:40.941Z,12.00
2019-04-05T21:24:12.989Z,12.97
2019-04-05T21:26:45.008Z,12.80
2019-04-05T21:29:17.073Z,11.83
2019-04-05T21:31:49.213Z,17.03
2019-04-05T21:34:21.285Z,14.60
2019-04-05T21:36:53.316Z,14.00
2019-04-05T21:39:25.363Z,14.60
2019-04-05T21:41:57.382Z,15.00
2019-04-05T21:44:29.408Z,13.90
2019-04-05T21:47:01.421Z,14.63
2019-04-05T21:49:33.471Z,13.97
2019-04-05T21:52:05.511Z,16.43
2019-04-05T21:54:47.205Z,14.57
2019-04-05T21:57:11.558Z,15.47
2019-04-05T21:59:43.580Z,14.97
2019-04-05T22:02:16.087Z,15.83
2019-04-05T22:04:48.128Z,14.33
2019-04-05T22:07:20.107Z,16.60
2019-04-05T22:09:52.202Z,16.63
2019-04-05T22:12:24.214Z,15.43
2019-04-05T22:14:56.263Z,13.87
2019-04-05T22:17:28.343Z,13.80
2019-04-05T22:20:00.457Z,14.93
2019-04-05T22:22:32.452Z,13.90
2019-04-05T22:25:05.148Z,14.47
2019-04-05T22:27:37.154Z,16.47
2019-04-05T22:30:09.363Z,14.93
2019-04-05T22:32:41.358Z,15.00
2019-04-05T22:35:13.372Z,13.43
2019-04-05T22:37:45.405Z,14.90
2019-04-05T22:40:17.485Z,14.77
2019-04-05T22:42:49.425Z,15.70
2019-04-05T22:45:21.463Z,16.47
2019-04-05T22:47:53.441Z,16.10
2019-04-05T22:50:25.461Z,17.57
2019-04-05T22:52:57.478Z,16.20
2019-04-05T22:55:29.524Z,16.13
2019-04-05T22:58:01.534Z,15.97
2019-04-05T23:00:33.496Z,15.43
2019-04-05T23:03:05.522Z,15.47
2019-04-05T23:05:37.523Z,15.87
2019-04-05T23:08:09.626Z,17.67
2019-04-05T23:10:41.571Z,17.10
2019-04-05T23:13:13.580Z,15.73
2019-04-05T23:15:45.598Z,16.20
2019-04-05T23:18:17.609Z,17.13
2019-04-05T23:20:49.622Z,17.53
2019-04-05T23:23:21.647Z,16.03
2019-04-05T23:25:53.654Z,17.13
2019-04-05T23:28:25.679Z,17.57
2019-04-05T23:30:57.652Z,15.60
2019-04-05T23:33:29.645Z,16.53
2019-04-05T23:36:01.584Z,19.27
2019-04-05T23:38:33.579Z,19.00
2019-04-05T23:41:05.522Z,19.20
2019-04-05T23:43:37.508Z,18.67
2019-04-05T23:46:09.533Z,18.93
2019-04-05T23:48:41.529Z,17.60
2019-04-05T23:51:13.522Z,17.87
2019-04-05T23:53:45.555Z,16.00
2019-04-05T23:56:17.548Z,17.43
2019-04-05T23:58:49.556Z,18.47
